logo
Search for airport 
image banner adimage banner adimage banner ad
image banner ad

CYNN - Nejanilini Lake

Located in , Canada

ICAO - CYNN, IATA -

Data provided by Airmate  

General information

Coordinates: N59°29'7" W97°46'52"
Elevation is 964 feet MSL.
Magnetic variation is 2° East
View others Airports in Manitoba

Operational data

Special qualification required
Current time UTC:
Current local time:
Weather at : - ( 0 km )
METAR: PKWA 152120Z AUTO 06014G22KT 5SM BR SCT020 BKN034 OVC065 29/26 A2984 RMK AO2 T02860258
View NOTAMs / SUP AIP / TFR affecting this airport [VIEW]
Communications frequencies: [VIEW]

Runways:

RWY identifierQFULength (ft)Width (ft)SurfaceLDA (ft)
18182°344280GRAVE3442
36344280GRAVE3442

Airport contact information

Address: Canada

Satellite view of CYNN